sensor_id;sensor_type;location;lat;lon;timestamp;temperature;humidity
24148;DHT22;12309;51.450;-2.624;2022-07-29T00:01:48;16.30;99.90
24148;DHT22;12309;51.450;-2.624;2022-07-29T00:04:14;16.20;99.90
24148;DHT22;12309;51.450;-2.624;2022-07-29T00:06:40;16.20;99.90
24148;DHT22;12309;51.450;-2.624;2022-07-29T00:09:06;16.10;99.90
24148;DHT22;12309;51.450;-2.624;2022-07-29T00:11:32;16.10;99.90
24148;DHT22;12309;51.450;-2.624;2022-07-29T00:13:58;16.10;99.90
24148;DHT22;12309;51.450;-2.624;2022-07-29T00:16:24;16.00;99.90
24148;DHT22;12309;51.450;-2.624;2022-07-29T00:18:50;16.00;99.90
24148;DHT22;12309;51.450;-2.624;2022-07-29T00:21:15;15.90;99.90
24148;DHT22;12309;51.450;-2.624;2022-07-29T00:23:41;16.00;99.90
24148;DHT22;12309;51.450;-2.624;2022-07-29T00:26:07;16.00;99.90
24148;DHT22;12309;51.450;-2.624;2022-07-29T00:28:33;15.90;99.90
24148;DHT22;12309;51.450;-2.624;2022-07-29T00:30:59;15.90;99.90
24148;DHT22;12309;51.450;-2.624;2022-07-29T00:33:24;15.90;99.90
24148;DHT22;12309;51.450;-2.624;2022-07-29T00:35:50;15.90;99.90
24148;DHT22;12309;51.450;-2.624;2022-07-29T00:38:18;15.90;99.90
24148;DHT22;12309;51.450;-2.624;2022-07-29T00:40:44;15.90;99.90
24148;DHT22;12309;51.450;-2.624;2022-07-29T00:43:11;15.80;99.90
24148;DHT22;12309;51.450;-2.624;2022-07-29T00:45:37;15.90;99.90
24148;DHT22;12309;51.450;-2.624;2022-07-29T00:48:03;15.90;99.90
24148;DHT22;12309;51.450;-2.624;2022-07-29T00:50:31;15.80;99.90
24148;DHT22;12309;51.450;-2.624;2022-07-29T00:52:58;15.80;99.90
24148;DHT22;12309;51.450;-2.624;2022-07-29T00:55:24;15.80;99.90
24148;DHT22;12309;51.450;-2.624;2022-07-29T00:57:50;15.70;99.90
24148;DHT22;12309;51.450;-2.624;2022-07-29T01:00:22;15.70;99.90
24148;DHT22;12309;51.450;-2.624;2022-07-29T01:02:48;15.70;99.90
24148;DHT22;12309;51.450;-2.624;2022-07-29T01:05:16;15.70;99.90
24148;DHT22;12309;51.450;-2.624;2022-07-29T01:07:43;15.70;99.90
24148;DHT22;12309;51.450;-2.624;2022-07-29T01:10:09;15.70;99.90
24148;DHT22;12309;51.450;-2.624;2022-07-29T01:12:37;15.70;99.90
24148;DHT22;12309;51.450;-2.624;2022-07-29T01:15:06;15.70;99.90
24148;DHT22;12309;51.450;-2.624;2022-07-29T01:17:54;15.70;99.90
24148;DHT22;12309;51.450;-2.624;2022-07-29T01:26:04;15.80;99.90
24148;DHT22;12309;51.450;-2.624;2022-07-29T01:31:31;15.80;99.90
24148;DHT22;12309;51.450;-2.624;2022-07-29T01:34:02;15.80;99.90
24148;DHT22;12309;51.450;-2.624;2022-07-29T01:36:45;15.70;99.90
24148;DHT22;12309;51.450;-2.624;2022-07-29T01:39:30;15.70;99.90
24148;DHT22;12309;51.450;-2.624;2022-07-29T01:42:23;15.60;99.90
24148;DHT22;12309;51.450;-2.624;2022-07-29T01:45:15;15.60;99.90
24148;DHT22;12309;51.450;-2.624;2022-07-29T01:48:06;15.50;99.90
24148;DHT22;12309;51.450;-2.624;2022-07-29T01:50:40;15.50;99.90
24148;DHT22;12309;51.450;-2.624;2022-07-29T01:53:10;15.40;99.90
24148;DHT22;12309;51.450;-2.624;2022-07-29T01:55:43;15.40;99.90
24148;DHT22;12309;51.450;-2.624;2022-07-29T01:58:11;15.30;99.90
24148;DHT22;12309;51.450;-2.624;2022-07-29T02:00:39;15.20;99.90
24148;DHT22;12309;51.450;-2.624;2022-07-29T02:03:09;15.20;99.90
24148;DHT22;12309;51.450;-2.624;2022-07-29T02:05:38;15.20;99.90
24148;DHT22;12309;51.450;-2.624;2022-07-29T02:08:05;15.20;99.90
24148;DHT22;12309;51.450;-2.624;2022-07-29T02:10:33;15.10;99.90
24148;DHT22;12309;51.450;-2.624;2022-07-29T02:13:01;15.20;99.90
24148;DHT22;12309;51.450;-2.624;2022-07-29T02:15:29;15.20;99.90
24148;DHT22;12309;51.450;-2.624;2022-07-29T02:18:02;15.20;99.90
24148;DHT22;12309;51.450;-2.624;2022-07-29T02:20:29;15.20;99.90
24148;DHT22;12309;51.450;-2.624;2022-07-29T02:22:57;15.20;99.90
24148;DHT22;12309;51.450;-2.624;2022-07-29T02:25:24;15.20;99.90
24148;DHT22;12309;51.450;-2.624;2022-07-29T02:27:51;15.20;99.90
24148;DHT22;12309;51.450;-2.624;2022-07-29T02:30:18;15.20;99.90
24148;DHT22;12309;51.450;-2.624;2022-07-29T02:32:46;15.30;99.90
24148;DHT22;12309;51.450;-2.624;2022-07-29T02:35:15;15.30;99.90
24148;DHT22;12309;51.450;-2.624;2022-07-29T02:37:44;15.20;99.90
24148;DHT22;12309;51.450;-2.624;2022-07-29T02:40:14;15.10;99.90
24148;DHT22;12309;51.450;-2.624;2022-07-29T02:42:42;15.00;99.90
24148;DHT22;12309;51.450;-2.624;2022-07-29T02:45:10;15.00;99.90
24148;DHT22;12309;51.450;-2.624;2022-07-29T02:47:43;15.00;99.90
24148;DHT22;12309;51.450;-2.624;2022-07-29T02:50:23;14.90;99.90
24148;DHT22;12309;51.450;-2.624;2022-07-29T02:52:58;14.80;99.90
24148;DHT22;12309;51.450;-2.624;2022-07-29T02:55:26;14.70;99.90
24148;DHT22;12309;51.450;-2.624;2022-07-29T03:00:46;14.70;99.90
24148;DHT22;12309;51.450;-2.624;2022-07-29T03:03:15;14.70;99.90
24148;DHT22;12309;51.450;-2.624;2022-07-29T03:05:41;14.70;99.90
24148;DHT22;12309;51.450;-2.624;2022-07-29T03:08:09;14.60;99.90
24148;DHT22;12309;51.450;-2.624;2022-07-29T03:10:37;14.60;99.90
24148;DHT22;12309;51.450;-2.624;2022-07-29T03:13:04;14.60;99.90
24148;DHT22;12309;51.450;-2.624;2022-07-29T03:15:31;14.60;99.90
24148;DHT22;12309;51.450;-2.624;2022-07-29T03:17:58;14.60;99.90
24148;DHT22;12309;51.450;-2.624;2022-07-29T03:20:25;14.60;99.90
24148;DHT22;12309;51.450;-2.624;2022-07-29T03:22:51;14.60;99.90
24148;DHT22;12309;51.450;-2.624;2022-07-29T03:25:18;14.60;99.90
24148;DHT22;12309;51.450;-2.624;2022-07-29T03:27:45;14.50;99.90
24148;DHT22;12309;51.450;-2.624;2022-07-29T03:30:12;14.50;99.90
24148;DHT22;12309;51.450;-2.624;2022-07-29T03:32:38;14.50;99.90
24148;DHT22;12309;51.450;-2.624;2022-07-29T03:35:05;14.50;99.90
24148;DHT22;12309;51.450;-2.624;2022-07-29T03:37:30;14.50;99.90
24148;DHT22;12309;51.450;-2.624;2022-07-29T03:39:57;14.50;99.90
24148;DHT22;12309;51.450;-2.624;2022-07-29T03:42:27;14.50;99.90
24148;DHT22;12309;51.450;-2.624;2022-07-29T03:44:54;14.50;99.90
24148;DHT22;12309;51.450;-2.624;2022-07-29T03:47:25;14.50;99.90
24148;DHT22;12309;51.450;-2.624;2022-07-29T03:49:59;14.40;99.90
24148;DHT22;12309;51.450;-2.624;2022-07-29T03:52:25;14.50;99.90
24148;DHT22;12309;51.450;-2.624;2022-07-29T03:54:52;14.50;99.90
24148;DHT22;12309;51.450;-2.624;2022-07-29T03:57:22;14.40;99.90
24148;DHT22;12309;51.450;-2.624;2022-07-29T03:59:49;14.40;99.90
24148;DHT22;12309;51.450;-2.624;2022-07-29T04:02:16;14.40;99.90
24148;DHT22;12309;51.450;-2.624;2022-07-29T04:04:42;14.30;99.90
24148;DHT22;12309;51.450;-2.624;2022-07-29T04:07:12;14.30;99.90
24148;DHT22;12309;51.450;-2.624;2022-07-29T04:09:38;14.30;99.90
24148;DHT22;12309;51.450;-2.624;2022-07-29T04:12:04;14.30;99.90
24148;DHT22;12309;51.450;-2.624;2022-07-29T04:14:31;14.30;99.90
24148;DHT22;12309;51.450;-2.624;2022-07-29T04:16:57;14.30;99.90
24148;DHT22;12309;51.450;-2.624;2022-07-29T04:19:22;14.30;99.90
24148;DHT22;12309;51.450;-2.624;2022-07-29T04:21:48;14.30;99.90
24148;DHT22;12309;51.450;-2.624;2022-07-29T04:24:14;14.40;99.90
24148;DHT22;12309;51.450;-2.624;2022-07-29T04:26:40;14.30;99.90
24148;DHT22;12309;51.450;-2.624;2022-07-29T04:29:05;14.20;99.90
24148;DHT22;12309;51.450;-2.624;2022-07-29T04:31:31;14.30;99.90
24148;DHT22;12309;51.450;-2.624;2022-07-29T04:33:57;14.20;99.90
24148;DHT22;12309;51.450;-2.624;2022-07-29T04:36:22;14.20;99.90
24148;DHT22;12309;51.450;-2.624;2022-07-29T04:38:48;14.20;99.90
24148;DHT22;12309;51.450;-2.624;2022-07-29T04:41:14;14.20;99.90
24148;DHT22;12309;51.450;-2.624;2022-07-29T04:43:40;14.20;99.90
24148;DHT22;12309;51.450;-2.624;2022-07-29T04:46:06;14.20;99.90
24148;DHT22;12309;51.450;-2.624;2022-07-29T04:48:32;14.10;99.90
24148;DHT22;12309;51.450;-2.624;2022-07-29T04:50:58;14.10;99.90
24148;DHT22;12309;51.450;-2.624;2022-07-29T04:53:24;14.10;99.90
24148;DHT22;12309;51.450;-2.624;2022-07-29T04:55:50;14.00;99.90
24148;DHT22;12309;51.450;-2.624;2022-07-29T04:58:16;14.00;99.90
24148;DHT22;12309;51.450;-2.624;2022-07-29T05:00:42;13.90;99.90
24148;DHT22;12309;51.450;-2.624;2022-07-29T05:03:08;13.90;99.90
24148;DHT22;12309;51.450;-2.624;2022-07-29T05:05:33;13.90;99.90
24148;DHT22;12309;51.450;-2.624;2022-07-29T05:07:59;13.90;99.90
24148;DHT22;12309;51.450;-2.624;2022-07-29T05:10:25;14.00;99.90
24148;DHT22;12309;51.450;-2.624;2022-07-29T05:12:51;14.10;99.90
24148;DHT22;12309;51.450;-2.624;2022-07-29T05:15:17;14.00;99.90
24148;DHT22;12309;51.450;-2.624;2022-07-29T05:17:44;14.10;99.90
24148;DHT22;12309;51.450;-2.624;2022-07-29T05:20:10;14.10;99.90
24148;DHT22;12309;51.450;-2.624;2022-07-29T05:22:36;14.10;99.90
24148;DHT22;12309;51.450;-2.624;2022-07-29T05:25:02;14.20;99.90
24148;DHT22;12309;51.450;-2.624;2022-07-29T05:27:28;14.20;99.90
24148;DHT22;12309;51.450;-2.624;2022-07-29T05:29:54;14.20;99.90
24148;DHT22;12309;51.450;-2.624;2022-07-29T05:32:19;14.30;99.90
24148;DHT22;12309;51.450;-2.624;2022-07-29T05:37:11;14.40;99.90
24148;DHT22;12309;51.450;-2.624;2022-07-29T05:39:39;14.40;99.90
24148;DHT22;12309;51.450;-2.624;2022-07-29T05:42:09;14.70;99.90
24148;DHT22;12309;51.450;-2.624;2022-07-29T05:44:40;14.50;99.90
24148;DHT22;12309;51.450;-2.624;2022-07-29T05:47:06;14.60;99.90
24148;DHT22;12309;51.450;-2.624;2022-07-29T05:49:32;14.70;99.90
24148;DHT22;12309;51.450;-2.624;2022-07-29T05:51:57;14.70;99.90
24148;DHT22;12309;51.450;-2.624;2022-07-29T05:54:23;14.70;99.90
24148;DHT22;12309;51.450;-2.624;2022-07-29T05:56:49;14.80;99.90
24148;DHT22;12309;51.450;-2.624;2022-07-29T05:59:15;14.80;99.90
24148;DHT22;12309;51.450;-2.624;2022-07-29T06:01:41;14.90;99.90
24148;DHT22;12309;51.450;-2.624;2022-07-29T06:04:07;15.00;99.90
24148;DHT22;12309;51.450;-2.624;2022-07-29T06:06:33;15.10;99.90
24148;DHT22;12309;51.450;-2.624;2022-07-29T06:09:00;15.10;99.90
24148;DHT22;12309;51.450;-2.624;2022-07-29T06:11:26;15.20;99.90
24148;DHT22;12309;51.450;-2.624;2022-07-29T06:13:52;15.30;99.90
24148;DHT22;12309;51.450;-2.624;2022-07-29T06:16:18;15.40;99.90
24148;DHT22;12309;51.450;-2.624;2022-07-29T06:18:44;15.50;99.90
24148;DHT22;12309;51.450;-2.624;2022-07-29T06:21:10;15.60;99.90
24148;DHT22;12309;51.450;-2.624;2022-07-29T06:23:39;15.60;99.90
24148;DHT22;12309;51.450;-2.624;2022-07-29T06:26:05;16.00;99.90
24148;DHT22;12309;51.450;-2.624;2022-07-29T06:28:32;15.80;99.90
24148;DHT22;12309;51.450;-2.624;2022-07-29T06:30:59;15.80;99.90
24148;DHT22;12309;51.450;-2.624;2022-07-29T06:33:25;15.80;99.90
24148;DHT22;12309;51.450;-2.624;2022-07-29T06:35:50;15.90;99.90
24148;DHT22;12309;51.450;-2.624;2022-07-29T06:38:16;16.00;99.90
24148;DHT22;12309;51.450;-2.624;2022-07-29T06:40:45;16.00;99.90
24148;DHT22;12309;51.450;-2.624;2022-07-29T06:43:36;16.10;99.90
24148;DHT22;12309;51.450;-2.624;2022-07-29T06:46:09;16.20;99.90
24148;DHT22;12309;51.450;-2.624;2022-07-29T06:48:35;16.20;99.90
24148;DHT22;12309;51.450;-2.624;2022-07-29T06:51:02;16.30;99.90
24148;DHT22;12309;51.450;-2.624;2022-07-29T06:53:29;16.40;99.90
24148;DHT22;12309;51.450;-2.624;2022-07-29T06:55:56;16.40;99.90
24148;DHT22;12309;51.450;-2.624;2022-07-29T06:58:22;16.50;99.90
24148;DHT22;12309;51.450;-2.624;2022-07-29T07:00:48;16.50;99.90
24148;DHT22;12309;51.450;-2.624;2022-07-29T07:03:14;16.60;99.90
24148;DHT22;12309;51.450;-2.624;2022-07-29T07:05:40;16.60;99.90
24148;DHT22;12309;51.450;-2.624;2022-07-29T07:08:06;16.60;99.90
24148;DHT22;12309;51.450;-2.624;2022-07-29T07:10:32;16.70;99.90
24148;DHT22;12309;51.450;-2.624;2022-07-29T07:12:59;16.80;99.90
24148;DHT22;12309;51.450;-2.624;2022-07-29T07:15:24;16.90;99.90
24148;DHT22;12309;51.450;-2.624;2022-07-29T07:17:50;17.00;99.90
24148;DHT22;12309;51.450;-2.624;2022-07-29T07:20:17;17.10;99.90
24148;DHT22;12309;51.450;-2.624;2022-07-29T07:22:43;17.10;99.90
24148;DHT22;12309;51.450;-2.624;2022-07-29T07:25:09;17.20;99.90
24148;DHT22;12309;51.450;-2.624;2022-07-29T07:27:36;17.40;99.90
24148;DHT22;12309;51.450;-2.624;2022-07-29T07:30:06;17.30;99.90
24148;DHT22;12309;51.450;-2.624;2022-07-29T07:32:33;17.30;99.90
24148;DHT22;12309;51.450;-2.624;2022-07-29T07:34:59;17.40;99.90
24148;DHT22;12309;51.450;-2.624;2022-07-29T07:37:25;17.60;99.90
24148;DHT22;12309;51.450;-2.624;2022-07-29T07:39:52;17.60;99.90
24148;DHT22;12309;51.450;-2.624;2022-07-29T07:42:18;17.80;99.90
24148;DHT22;12309;51.450;-2.624;2022-07-29T07:44:43;17.90;99.90
24148;DHT22;12309;51.450;-2.624;2022-07-29T07:47:11;18.00;99.90
24148;DHT22;12309;51.450;-2.624;2022-07-29T07:49:37;18.00;99.90
24148;DHT22;12309;51.450;-2.624;2022-07-29T07:52:04;18.00;99.90
24148;DHT22;12309;51.450;-2.624;2022-07-29T07:54:29;18.10;99.90
24148;DHT22;12309;51.450;-2.624;2022-07-29T07:56:56;18.20;99.90
24148;DHT22;12309;51.450;-2.624;2022-07-29T07:59:22;18.30;99.90
24148;DHT22;12309;51.450;-2.624;2022-07-29T08:01:47;18.50;99.90
24148;DHT22;12309;51.450;-2.624;2022-07-29T08:04:13;17.70;99.90
24148;DHT22;12309;51.450;-2.624;2022-07-29T08:06:39;18.50;99.90
24148;DHT22;12309;51.450;-2.624;2022-07-29T08:09:05;18.60;99.90
24148;DHT22;12309;51.450;-2.624;2022-07-29T08:11:31;18.40;99.90
24148;DHT22;12309;51.450;-2.624;2022-07-29T08:13:57;18.60;99.90
24148;DHT22;12309;51.450;-2.624;2022-07-29T08:16:23;18.80;99.90
24148;DHT22;12309;51.450;-2.624;2022-07-29T08:18:51;18.90;99.90
24148;DHT22;12309;51.450;-2.624;2022-07-29T08:21:17;19.10;99.90
24148;DHT22;12309;51.450;-2.624;2022-07-29T08:23:46;19.10;99.90
24148;DHT22;12309;51.450;-2.624;2022-07-29T08:26:15;19.00;99.90
24148;DHT22;12309;51.450;-2.624;2022-07-29T08:28:42;19.00;99.90
24148;DHT22;12309;51.450;-2.624;2022-07-29T08:31:14;19.10;99.90
24148;DHT22;12309;51.450;-2.624;2022-07-29T08:33:40;19.80;99.90
24148;DHT22;12309;51.450;-2.624;2022-07-29T08:36:06;19.80;99.90
24148;DHT22;12309;51.450;-2.624;2022-07-29T08:38:33;20.30;99.90
24148;DHT22;12309;51.450;-2.624;2022-07-29T08:41:00;21.00;99.90
24148;DHT22;12309;51.450;-2.624;2022-07-29T08:43:28;21.90;99.90
24148;DHT22;12309;51.450;-2.624;2022-07-29T08:45:54;22.70;99.90
24148;DHT22;12309;51.450;-2.624;2022-07-29T08:48:22;23.20;99.90
24148;DHT22;12309;51.450;-2.624;2022-07-29T08:50:52;23.60;99.90
24148;DHT22;12309;51.450;-2.624;2022-07-29T08:53:18;24.30;99.90
24148;DHT22;12309;51.450;-2.624;2022-07-29T08:55:46;23.80;99.90
24148;DHT22;12309;51.450;-2.624;2022-07-29T08:58:14;24.20;99.90
24148;DHT22;12309;51.450;-2.624;2022-07-29T09:00:45;24.70;99.90
24148;DHT22;12309;51.450;-2.624;2022-07-29T09:03:15;24.50;99.90
24148;DHT22;12309;51.450;-2.624;2022-07-29T09:05:42;22.80;99.90
24148;DHT22;12309;51.450;-2.624;2022-07-29T09:08:09;22.70;99.90
24148;DHT22;12309;51.450;-2.624;2022-07-29T09:10:35;23.20;99.90
24148;DHT22;12309;51.450;-2.624;2022-07-29T09:13:01;23.40;99.90
24148;DHT22;12309;51.450;-2.624;2022-07-29T09:15:27;23.90;99.90
24148;DHT22;12309;51.450;-2.624;2022-07-29T09:17:53;24.10;99.90
24148;DHT22;12309;51.450;-2.624;2022-07-29T09:20:21;24.30;99.90
24148;DHT22;12309;51.450;-2.624;2022-07-29T09:22:51;24.00;99.90
24148;DHT22;12309;51.450;-2.624;2022-07-29T09:25:38;23.50;99.90
24148;DHT22;12309;51.450;-2.624;2022-07-29T09:28:15;24.10;99.90
24148;DHT22;12309;51.450;-2.624;2022-07-29T09:30:55;24.10;99.90
24148;DHT22;12309;51.450;-2.624;2022-07-29T09:33:22;24.30;99.90
24148;DHT22;12309;51.450;-2.624;2022-07-29T09:36:07;24.90;99.90
24148;DHT22;12309;51.450;-2.624;2022-07-29T09:38:34;25.20;99.90
24148;DHT22;12309;51.450;-2.624;2022-07-29T09:41:01;25.50;99.90
24148;DHT22;12309;51.450;-2.624;2022-07-29T09:43:27;25.40;99.90
24148;DHT22;12309;51.450;-2.624;2022-07-29T09:45:53;25.60;99.90
24148;DHT22;12309;51.450;-2.624;2022-07-29T09:48:22;25.60;99.90
24148;DHT22;12309;51.450;-2.624;2022-07-29T09:50:48;25.90;99.90
24148;DHT22;12309;51.450;-2.624;2022-07-29T09:53:35;25.80;99.90
24148;DHT22;12309;51.450;-2.624;2022-07-29T09:56:03;24.80;99.90
24148;DHT22;12309;51.450;-2.624;2022-07-29T09:58:29;25.20;99.90
24148;DHT22;12309;51.450;-2.624;2022-07-29T10:00:56;25.40;99.90
24148;DHT22;12309;51.450;-2.624;2022-07-29T10:03:22;25.50;99.90
24148;DHT22;12309;51.450;-2.624;2022-07-29T10:06:09;25.90;99.90
24148;DHT22;12309;51.450;-2.624;2022-07-29T10:08:35;26.50;99.90
24148;DHT22;12309;51.450;-2.624;2022-07-29T10:11:13;26.60;99.90
24148;DHT22;12309;51.450;-2.624;2022-07-29T10:13:40;27.10;99.90
24148;DHT22;12309;51.450;-2.624;2022-07-29T10:16:06;27.30;99.90
24148;DHT22;12309;51.450;-2.624;2022-07-29T10:18:32;27.20;99.90
24148;DHT22;12309;51.450;-2.624;2022-07-29T10:20:59;27.10;99.90
24148;DHT22;12309;51.450;-2.624;2022-07-29T10:23:28;27.00;99.90
24148;DHT22;12309;51.450;-2.624;2022-07-29T10:25:54;27.00;99.90
24148;DHT22;12309;51.450;-2.624;2022-07-29T10:28:20;26.90;99.90
24148;DHT22;12309;51.450;-2.624;2022-07-29T10:30:46;27.00;99.90
24148;DHT22;12309;51.450;-2.624;2022-07-29T10:38:49;27.40;99.90
24148;DHT22;12309;51.450;-2.624;2022-07-29T10:44:09;27.90;99.90
24148;DHT22;12309;51.450;-2.624;2022-07-29T10:46:39;28.20;99.90
24148;DHT22;12309;51.450;-2.624;2022-07-29T10:49:13;28.10;99.90
24148;DHT22;12309;51.450;-2.624;2022-07-29T10:52:07;27.00;99.90
24148;DHT22;12309;51.450;-2.624;2022-07-29T10:57:18;27.70;99.90
24148;DHT22;12309;51.450;-2.624;2022-07-29T11:05:09;29.80;99.90
24148;DHT22;12309;51.450;-2.624;2022-07-29T11:07:36;30.00;99.90
24148;DHT22;12309;51.450;-2.624;2022-07-29T11:15:24;30.00;99.90
24148;DHT22;12309;51.450;-2.624;2022-07-29T11:20:43;31.20;99.90
24148;DHT22;12309;51.450;-2.624;2022-07-29T11:23:29;31.30;99.90
24148;DHT22;12309;51.450;-2.624;2022-07-29T11:26:19;30.40;99.90
24148;DHT22;12309;51.450;-2.624;2022-07-29T11:34:19;29.20;99.90
24148;DHT22;12309;51.450;-2.624;2022-07-29T11:47:26;32.00;99.90
24148;DHT22;12309;51.450;-2.624;2022-07-29T11:49:53;32.40;99.90
24148;DHT22;12309;51.450;-2.624;2022-07-29T11:52:20;33.10;99.90
24148;DHT22;12309;51.450;-2.624;2022-07-29T11:54:50;31.20;99.90
24148;DHT22;12309;51.450;-2.624;2022-07-29T11:57:17;31.30;99.90
24148;DHT22;12309;51.450;-2.624;2022-07-29T11:59:44;30.90;99.90
24148;DHT22;12309;51.450;-2.624;2022-07-29T12:02:11;32.10;99.90
24148;DHT22;12309;51.450;-2.624;2022-07-29T12:04:55;32.40;99.90
24148;DHT22;12309;51.450;-2.624;2022-07-29T12:07:31;32.90;99.90
24148;DHT22;12309;51.450;-2.624;2022-07-29T12:09:57;33.00;99.90
24148;DHT22;12309;51.450;-2.624;2022-07-29T12:12:23;33.20;99.90
24148;DHT22;12309;51.450;-2.624;2022-07-29T12:14:49;32.90;99.90
24148;DHT22;12309;51.450;-2.624;2022-07-29T12:17:29;33.10;99.90
24148;DHT22;12309;51.450;-2.624;2022-07-29T12:19:57;33.00;99.90
24148;DHT22;12309;51.450;-2.624;2022-07-29T12:22:34;33.30;99.90
24148;DHT22;12309;51.450;-2.624;2022-07-29T12:25:12;33.60;99.90
24148;DHT22;12309;51.450;-2.624;2022-07-29T12:27:41;33.70;99.90
24148;DHT22;12309;51.450;-2.624;2022-07-29T12:30:11;33.70;99.90
24148;DHT22;12309;51.450;-2.624;2022-07-29T12:32:38;33.50;99.90
24148;DHT22;12309;51.450;-2.624;2022-07-29T12:35:24;33.20;99.90
24148;DHT22;12309;51.450;-2.624;2022-07-29T12:37:51;33.10;99.90
24148;DHT22;12309;51.450;-2.624;2022-07-29T12:40:18;33.20;99.90
24148;DHT22;12309;51.450;-2.624;2022-07-29T12:43:10;33.00;99.90
24148;DHT22;12309;51.450;-2.624;2022-07-29T12:45:38;31.40;99.90
24148;DHT22;12309;51.450;-2.624;2022-07-29T12:48:05;32.50;99.90
24148;DHT22;12309;51.450;-2.624;2022-07-29T12:50:37;32.70;99.90
24148;DHT22;12309;51.450;-2.624;2022-07-29T12:53:16;33.10;99.90
24148;DHT22;12309;51.450;-2.624;2022-07-29T12:55:46;33.50;99.90
24148;DHT22;12309;51.450;-2.624;2022-07-29T12:58:30;33.70;99.90
24148;DHT22;12309;51.450;-2.624;2022-07-29T13:01:11;33.20;99.90
24148;DHT22;12309;51.450;-2.624;2022-07-29T13:03:51;33.10;99.90
24148;DHT22;12309;51.450;-2.624;2022-07-29T13:06:36;32.40;99.90
24148;DHT22;12309;51.450;-2.624;2022-07-29T13:09:09;31.20;99.90
24148;DHT22;12309;51.450;-2.624;2022-07-29T13:11:44;30.70;99.90
24148;DHT22;12309;51.450;-2.624;2022-07-29T13:14:12;30.40;99.90
24148;DHT22;12309;51.450;-2.624;2022-07-29T13:17:03;29.50;99.90
24148;DHT22;12309;51.450;-2.624;2022-07-29T13:19:39;28.80;99.90
24148;DHT22;12309;51.450;-2.624;2022-07-29T13:22:09;28.70;99.90
24148;DHT22;12309;51.450;-2.624;2022-07-29T13:27:19;30.60;99.90
24148;DHT22;12309;51.450;-2.624;2022-07-29T13:29:45;31.50;99.90
24148;DHT22;12309;51.450;-2.624;2022-07-29T13:32:12;30.60;99.90
24148;DHT22;12309;51.450;-2.624;2022-07-29T13:34:38;30.60;99.90
24148;DHT22;12309;51.450;-2.624;2022-07-29T13:37:03;32.20;99.90
24148;DHT22;12309;51.450;-2.624;2022-07-29T13:39:29;32.50;99.90
24148;DHT22;12309;51.450;-2.624;2022-07-29T13:41:55;32.20;99.90
24148;DHT22;12309;51.450;-2.624;2022-07-29T13:44:21;32.10;99.90
24148;DHT22;12309;51.450;-2.624;2022-07-29T13:46:47;32.60;99.90
24148;DHT22;12309;51.450;-2.624;2022-07-29T13:49:12;32.90;99.90
24148;DHT22;12309;51.450;-2.624;2022-07-29T13:51:38;32.80;99.90
24148;DHT22;12309;51.450;-2.624;2022-07-29T13:54:04;32.40;99.90
24148;DHT22;12309;51.450;-2.624;2022-07-29T13:56:30;33.20;99.90
24148;DHT22;12309;51.450;-2.624;2022-07-29T13:58:56;34.30;99.90
24148;DHT22;12309;51.450;-2.624;2022-07-29T14:01:22;34.30;99.90
24148;DHT22;12309;51.450;-2.624;2022-07-29T14:03:48;33.40;99.90
24148;DHT22;12309;51.450;-2.624;2022-07-29T14:06:14;33.10;99.90
24148;DHT22;12309;51.450;-2.624;2022-07-29T14:08:40;34.10;99.90
24148;DHT22;12309;51.450;-2.624;2022-07-29T14:11:06;34.00;99.90
24148;DHT22;12309;51.450;-2.624;2022-07-29T14:13:31;34.20;99.90
24148;DHT22;12309;51.450;-2.624;2022-07-29T14:15:57;34.10;99.90
24148;DHT22;12309;51.450;-2.624;2022-07-29T14:18:23;34.50;99.90
24148;DHT22;12309;51.450;-2.624;2022-07-29T14:20:49;34.40;99.90
24148;DHT22;12309;51.450;-2.624;2022-07-29T14:23:16;33.60;99.90
24148;DHT22;12309;51.450;-2.624;2022-07-29T14:25:41;33.50;99.90
24148;DHT22;12309;51.450;-2.624;2022-07-29T14:28:07;32.50;99.90
24148;DHT22;12309;51.450;-2.624;2022-07-29T14:30:33;32.90;99.90
24148;DHT22;12309;51.450;-2.624;2022-07-29T14:32:59;33.80;99.90
24148;DHT22;12309;51.450;-2.624;2022-07-29T14:35:24;33.70;99.90
24148;DHT22;12309;51.450;-2.624;2022-07-29T14:37:50;34.00;99.90
24148;DHT22;12309;51.450;-2.624;2022-07-29T14:40:16;33.90;99.90
24148;DHT22;12309;51.450;-2.624;2022-07-29T14:42:41;33.90;99.90
24148;DHT22;12309;51.450;-2.624;2022-07-29T14:45:08;33.80;99.90
24148;DHT22;12309;51.450;-2.624;2022-07-29T14:47:35;33.80;99.90
24148;DHT22;12309;51.450;-2.624;2022-07-29T14:50:01;33.90;99.90
24148;DHT22;12309;51.450;-2.624;2022-07-29T14:52:27;32.90;99.90
24148;DHT22;12309;51.450;-2.624;2022-07-29T14:54:52;32.60;99.90
24148;DHT22;12309;51.450;-2.624;2022-07-29T14:57:18;30.90;99.90
24148;DHT22;12309;51.450;-2.624;2022-07-29T14:59:45;30.60;99.90
24148;DHT22;12309;51.450;-2.624;2022-07-29T15:02:10;30.30;99.90
24148;DHT22;12309;51.450;-2.624;2022-07-29T15:04:36;30.30;99.90
24148;DHT22;12309;51.450;-2.624;2022-07-29T15:07:02;30.70;99.90
24148;DHT22;12309;51.450;-2.624;2022-07-29T15:09:28;30.20;99.90
24148;DHT22;12309;51.450;-2.624;2022-07-29T15:11:54;30.00;99.90
24148;DHT22;12309;51.450;-2.624;2022-07-29T15:14:20;30.50;99.90
24148;DHT22;12309;51.450;-2.624;2022-07-29T15:16:45;29.60;99.90
24148;DHT22;12309;51.450;-2.624;2022-07-29T15:19:11;30.10;99.90
24148;DHT22;12309;51.450;-2.624;2022-07-29T15:21:37;29.90;99.90
24148;DHT22;12309;51.450;-2.624;2022-07-29T15:24:03;30.90;99.90
24148;DHT22;12309;51.450;-2.624;2022-07-29T15:26:29;30.90;99.90
24148;DHT22;12309;51.450;-2.624;2022-07-29T15:28:54;31.60;99.90
24148;DHT22;12309;51.450;-2.624;2022-07-29T15:31:23;32.00;99.90
24148;DHT22;12309;51.450;-2.624;2022-07-29T15:33:48;31.60;99.90
24148;DHT22;12309;51.450;-2.624;2022-07-29T15:36:14;31.30;99.90
24148;DHT22;12309;51.450;-2.624;2022-07-29T15:38:40;32.10;99.90
24148;DHT22;12309;51.450;-2.624;2022-07-29T15:41:06;32.40;99.90
24148;DHT22;12309;51.450;-2.624;2022-07-29T15:43:33;33.40;99.90
24148;DHT22;12309;51.450;-2.624;2022-07-29T15:46:00;33.80;99.90
24148;DHT22;12309;51.450;-2.624;2022-07-29T15:48:45;33.00;99.90
24148;DHT22;12309;51.450;-2.624;2022-07-29T15:51:11;31.50;99.90
24148;DHT22;12309;51.450;-2.624;2022-07-29T15:53:36;30.70;99.90
24148;DHT22;12309;51.450;-2.624;2022-07-29T15:56:02;29.90;99.90
24148;DHT22;12309;51.450;-2.624;2022-07-29T15:58:29;29.90;99.90
24148;DHT22;12309;51.450;-2.624;2022-07-29T16:00:54;29.80;99.90
24148;DHT22;12309;51.450;-2.624;2022-07-29T16:03:20;29.30;99.90
24148;DHT22;12309;51.450;-2.624;2022-07-29T16:05:47;29.00;99.90
24148;DHT22;12309;51.450;-2.624;2022-07-29T16:08:13;28.60;99.90
24148;DHT22;12309;51.450;-2.624;2022-07-29T16:10:39;28.60;99.90
24148;DHT22;12309;51.450;-2.624;2022-07-29T16:13:05;28.70;99.90
24148;DHT22;12309;51.450;-2.624;2022-07-29T16:15:31;28.60;99.90
24148;DHT22;12309;51.450;-2.624;2022-07-29T16:17:57;28.20;99.90
24148;DHT22;12309;51.450;-2.624;2022-07-29T16:20:23;27.90;99.90